sensor_id;sensor_type;location;lat;lon;timestamp;temperature;humidity
14317;DHT22;7242;50.858;6.586;2023-12-20T00:02:17;8.80;99.90
14317;DHT22;7242;50.858;6.586;2023-12-20T00:05:18;8.50;99.90
14317;DHT22;7242;50.858;6.586;2023-12-20T00:08:19;8.60;99.90
14317;DHT22;7242;50.858;6.586;2023-12-20T00:17:22;8.60;99.90
14317;DHT22;7242;50.858;6.586;2023-12-20T00:32:30;8.60;99.90
14317;DHT22;7242;50.858;6.586;2023-12-20T00:35:31;8.50;99.90
14317;DHT22;7242;50.858;6.586;2023-12-20T00:38:31;9.00;99.90
14317;DHT22;7242;50.858;6.586;2023-12-20T00:44:34;8.70;99.90
14317;DHT22;7242;50.858;6.586;2023-12-20T00:50:36;8.40;99.90
14317;DHT22;7242;50.858;6.586;2023-12-20T00:59:39;8.70;99.90
14317;DHT22;7242;50.858;6.586;2023-12-20T01:02:40;8.30;99.90
14317;DHT22;7242;50.858;6.586;2023-12-20T01:05:41;8.40;99.90
14317;DHT22;7242;50.858;6.586;2023-12-20T01:11:44;8.30;99.90
14317;DHT22;7242;50.858;6.586;2023-12-20T01:14:46;8.60;99.90
14317;DHT22;7242;50.858;6.586;2023-12-20T01:17:47;8.00;99.90
14317;DHT22;7242;50.858;6.586;2023-12-20T01:20:50;8.30;99.90
14317;DHT22;7242;50.858;6.586;2023-12-20T01:23:50;8.30;99.90
14317;DHT22;7242;50.858;6.586;2023-12-20T01:29:52;8.10;99.90
14317;DHT22;7242;50.858;6.586;2023-12-20T01:35:55;7.60;99.90
14317;DHT22;7242;50.858;6.586;2023-12-20T01:41:57;7.60;99.90
14317;DHT22;7242;50.858;6.586;2023-12-20T01:47:59;7.80;99.90
14317;DHT22;7242;50.858;6.586;2023-12-20T01:54:03;7.60;99.90
14317;DHT22;7242;50.858;6.586;2023-12-20T01:57:06;7.40;99.90
14317;DHT22;7242;50.858;6.586;2023-12-20T02:06:11;7.00;99.90
14317;DHT22;7242;50.858;6.586;2023-12-20T02:09:12;6.90;99.90
14317;DHT22;7242;50.858;6.586;2023-12-20T02:15:15;6.50;99.90
14317;DHT22;7242;50.858;6.586;2023-12-20T02:18:16;7.00;99.90
14317;DHT22;7242;50.858;6.586;2023-12-20T02:21:17;6.70;99.90
14317;DHT22;7242;50.858;6.586;2023-12-20T02:24:18;6.60;99.90
14317;DHT22;7242;50.858;6.586;2023-12-20T02:27:19;6.80;99.90
14317;DHT22;7242;50.858;6.586;2023-12-20T02:39:24;6.90;99.90
14317;DHT22;7242;50.858;6.586;2023-12-20T02:51:29;6.80;99.90
14317;DHT22;7242;50.858;6.586;2023-12-20T02:54:30;7.00;99.90
14317;DHT22;7242;50.858;6.586;2023-12-20T03:00:34;6.80;99.90
14317;DHT22;7242;50.858;6.586;2023-12-20T03:03:35;7.10;99.90
14317;DHT22;7242;50.858;6.586;2023-12-20T03:09:37;7.20;99.90
14317;DHT22;7242;50.858;6.586;2023-12-20T03:18:40;7.40;99.90
14317;DHT22;7242;50.858;6.586;2023-12-20T03:24:42;7.30;99.90
14317;DHT22;7242;50.858;6.586;2023-12-20T03:27:43;6.80;99.90
14317;DHT22;7242;50.858;6.586;2023-12-20T03:36:46;6.90;99.90
14317;DHT22;7242;50.858;6.586;2023-12-20T03:42:49;7.20;99.90
14317;DHT22;7242;50.858;6.586;2023-12-20T03:45:50;6.80;99.90
14317;DHT22;7242;50.858;6.586;2023-12-20T03:51:53;6.80;99.90
14317;DHT22;7242;50.858;6.586;2023-12-20T03:57:55;6.60;99.90
14317;DHT22;7242;50.858;6.586;2023-12-20T04:03:57;6.70;99.90
14317;DHT22;7242;50.858;6.586;2023-12-20T04:10:00;7.00;99.90
14317;DHT22;7242;50.858;6.586;2023-12-20T04:19:03;6.70;99.90
14317;DHT22;7242;50.858;6.586;2023-12-20T04:25:06;6.90;99.90
14317;DHT22;7242;50.858;6.586;2023-12-20T04:31:08;6.50;99.90
14317;DHT22;7242;50.858;6.586;2023-12-20T04:37:10;6.90;99.90
14317;DHT22;7242;50.858;6.586;2023-12-20T04:40:11;6.70;99.90
14317;DHT22;7242;50.858;6.586;2023-12-20T04:43:12;6.70;99.90
14317;DHT22;7242;50.858;6.586;2023-12-20T04:52:16;7.00;99.90
14317;DHT22;7242;50.858;6.586;2023-12-20T04:58:18;6.80;99.90
14317;DHT22;7242;50.858;6.586;2023-12-20T05:07:23;6.60;99.90
14317;DHT22;7242;50.858;6.586;2023-12-20T05:10:24;6.70;99.90
14317;DHT22;7242;50.858;6.586;2023-12-20T05:13:25;6.70;99.90
14317;DHT22;7242;50.858;6.586;2023-12-20T05:28:31;6.60;99.90
14317;DHT22;7242;50.858;6.586;2023-12-20T05:37:35;6.50;99.90
14317;DHT22;7242;50.858;6.586;2023-12-20T05:43:37;6.70;99.90
14317;DHT22;7242;50.858;6.586;2023-12-20T05:52:42;6.60;99.90
14317;DHT22;7242;50.858;6.586;2023-12-20T06:01:45;6.60;99.90
14317;DHT22;7242;50.858;6.586;2023-12-20T06:07:47;6.70;99.90
14317;DHT22;7242;50.858;6.586;2023-12-20T06:10:50;6.50;99.90
14317;DHT22;7242;50.858;6.586;2023-12-20T06:16:54;6.80;99.90
14317;DHT22;7242;50.858;6.586;2023-12-20T06:28:58;6.60;99.90
14317;DHT22;7242;50.858;6.586;2023-12-20T06:38:03;6.80;99.90
14317;DHT22;7242;50.858;6.586;2023-12-20T06:41:04;6.90;99.90
14317;DHT22;7242;50.858;6.586;2023-12-20T06:44:05;6.80;99.90
14317;DHT22;7242;50.858;6.586;2023-12-20T06:47:06;7.20;99.90
14317;DHT22;7242;50.858;6.586;2023-12-20T06:50:07;6.90;99.90
14317;DHT22;7242;50.858;6.586;2023-12-20T06:53:09;7.00;99.90
14317;DHT22;7242;50.858;6.586;2023-12-20T07:14:23;6.80;99.90
14317;DHT22;7242;50.858;6.586;2023-12-20T07:20:25;6.80;99.90
14317;DHT22;7242;50.858;6.586;2023-12-20T07:23:26;7.20;99.90
14317;DHT22;7242;50.858;6.586;2023-12-20T07:26:27;7.00;99.90
14317;DHT22;7242;50.858;6.586;2023-12-20T07:32:30;6.90;99.90
14317;DHT22;7242;50.858;6.586;2023-12-20T07:38:32;7.10;99.90
14317;DHT22;7242;50.858;6.586;2023-12-20T07:47:36;7.10;99.90
14317;DHT22;7242;50.858;6.586;2023-12-20T07:53:38;7.10;99.90
14317;DHT22;7242;50.858;6.586;2023-12-20T08:02:42;7.10;99.90
14317;DHT22;7242;50.858;6.586;2023-12-20T08:08:44;6.90;99.90
14317;DHT22;7242;50.858;6.586;2023-12-20T08:14:47;6.80;99.90
14317;DHT22;7242;50.858;6.586;2023-12-20T08:17:48;6.80;99.90
14317;DHT22;7242;50.858;6.586;2023-12-20T08:23:50;6.90;99.90
14317;DHT22;7242;50.858;6.586;2023-12-20T08:32:54;6.50;99.90
14317;DHT22;7242;50.858;6.586;2023-12-20T08:35:55;6.80;99.90
14317;DHT22;7242;50.858;6.586;2023-12-20T08:41:57;6.80;99.90
14317;DHT22;7242;50.858;6.586;2023-12-20T08:44:59;6.90;99.90
14317;DHT22;7242;50.858;6.586;2023-12-20T08:51:01;6.60;99.90
14317;DHT22;7242;50.858;6.586;2023-12-20T08:57:08;7.10;99.90
14317;DHT22;7242;50.858;6.586;2023-12-20T09:00:09;7.30;99.90
14317;DHT22;7242;50.858;6.586;2023-12-20T09:06:11;7.40;99.90
14317;DHT22;7242;50.858;6.586;2023-12-20T09:12:20;7.20;99.90
14317;DHT22;7242;50.858;6.586;2023-12-20T09:18:22;7.20;99.90
14317;DHT22;7242;50.858;6.586;2023-12-20T09:21:23;7.00;99.90
14317;DHT22;7242;50.858;6.586;2023-12-20T09:27:25;7.30;99.90
14317;DHT22;7242;50.858;6.586;2023-12-20T09:33:28;7.30;99.90
14317;DHT22;7242;50.858;6.586;2023-12-20T09:39:32;7.20;99.90
14317;DHT22;7242;50.858;6.586;2023-12-20T09:51:56;7.40;99.90
14317;DHT22;7242;50.858;6.586;2023-12-20T09:54:58;7.30;99.90
14317;DHT22;7242;50.858;6.586;2023-12-20T10:07:10;7.60;99.90
14317;DHT22;7242;50.858;6.586;2023-12-20T10:13:13;7.90;99.90
14317;DHT22;7242;50.858;6.586;2023-12-20T10:19:17;8.00;99.90
14317;DHT22;7242;50.858;6.586;2023-12-20T10:25:23;7.80;99.90
14317;DHT22;7242;50.858;6.586;2023-12-20T10:37:40;8.10;99.90
14317;DHT22;7242;50.858;6.586;2023-12-20T10:40:40;8.10;99.90
14317;DHT22;7242;50.858;6.586;2023-12-20T10:43:41;8.10;99.90
14317;DHT22;7242;50.858;6.586;2023-12-20T10:46:43;8.00;99.90
14317;DHT22;7242;50.858;6.586;2023-12-20T10:49:52;8.10;99.90
14317;DHT22;7242;50.858;6.586;2023-12-20T10:52:54;8.40;99.90
14317;DHT22;7242;50.858;6.586;2023-12-20T10:59:02;8.20;99.90
14317;DHT22;7242;50.858;6.586;2023-12-20T11:05:27;8.20;99.90
14317;DHT22;7242;50.858;6.586;2023-12-20T11:08:46;8.20;99.90
14317;DHT22;7242;50.858;6.586;2023-12-20T11:15:02;8.10;99.90
14317;DHT22;7242;50.858;6.586;2023-12-20T11:24:09;7.90;99.90
14317;DHT22;7242;50.858;6.586;2023-12-20T11:30:14;7.90;99.90
14317;DHT22;7242;50.858;6.586;2023-12-20T11:42:23;8.40;99.90
14317;DHT22;7242;50.858;6.586;2023-12-20T11:45:24;8.40;99.90
14317;DHT22;7242;50.858;6.586;2023-12-20T11:48:26;8.60;99.90
14317;DHT22;7242;50.858;6.586;2023-12-20T12:00:33;8.50;99.90
14317;DHT22;7242;50.858;6.586;2023-12-20T12:06:35;8.40;99.90
14317;DHT22;7242;50.858;6.586;2023-12-20T12:09:36;8.50;99.90
14317;DHT22;7242;50.858;6.586;2023-12-20T12:12:37;8.40;99.90
14317;DHT22;7242;50.858;6.586;2023-12-20T12:18:39;8.40;99.90
14317;DHT22;7242;50.858;6.586;2023-12-20T12:24:44;8.30;99.90
14317;DHT22;7242;50.858;6.586;2023-12-20T12:27:45;8.20;99.90
14317;DHT22;7242;50.858;6.586;2023-12-20T12:31:04;8.30;99.90
14317;DHT22;7242;50.858;6.586;2023-12-20T12:34:05;8.40;99.90
14317;DHT22;7242;50.858;6.586;2023-12-20T12:37:06;8.30;99.90
14317;DHT22;7242;50.858;6.586;2023-12-20T12:40:10;8.20;99.90
14317;DHT22;7242;50.858;6.586;2023-12-20T12:43:12;8.20;99.90
14317;DHT22;7242;50.858;6.586;2023-12-20T12:46:13;8.10;99.90
14317;DHT22;7242;50.858;6.586;2023-12-20T12:58:18;8.10;99.90
14317;DHT22;7242;50.858;6.586;2023-12-20T13:01:20;8.60;99.90
14317;DHT22;7242;50.858;6.586;2023-12-20T13:16:26;8.20;99.90
14317;DHT22;7242;50.858;6.586;2023-12-20T13:22:28;8.20;99.90
14317;DHT22;7242;50.858;6.586;2023-12-20T13:31:33;8.30;99.90
14317;DHT22;7242;50.858;6.586;2023-12-20T13:37:35;8.40;99.90
14317;DHT22;7242;50.858;6.586;2023-12-20T13:52:41;8.20;99.90
14317;DHT22;7242;50.858;6.586;2023-12-20T13:58:43;8.10;99.90
14317;DHT22;7242;50.858;6.586;2023-12-20T14:04:45;8.00;99.90
14317;DHT22;7242;50.858;6.586;2023-12-20T14:10:47;8.30;99.90
14317;DHT22;7242;50.858;6.586;2023-12-20T14:13:49;8.20;99.90
14317;DHT22;7242;50.858;6.586;2023-12-20T14:16:50;8.40;99.90
14317;DHT22;7242;50.858;6.586;2023-12-20T14:19:51;8.20;99.90
14317;DHT22;7242;50.858;6.586;2023-12-20T14:22:52;8.20;99.90
14317;DHT22;7242;50.858;6.586;2023-12-20T14:25:53;8.60;99.90
14317;DHT22;7242;50.858;6.586;2023-12-20T14:41:00;8.50;99.90
14317;DHT22;7242;50.858;6.586;2023-12-20T14:44:04;8.70;99.90
14317;DHT22;7242;50.858;6.586;2023-12-20T14:50:07;8.40;99.90
14317;DHT22;7242;50.858;6.586;2023-12-20T14:53:08;8.20;99.90
14317;DHT22;7242;50.858;6.586;2023-12-20T14:59:10;8.40;99.90
14317;DHT22;7242;50.858;6.586;2023-12-20T15:08:15;8.80;99.90
14317;DHT22;7242;50.858;6.586;2023-12-20T15:14:17;8.40;99.90
14317;DHT22;7242;50.858;6.586;2023-12-20T15:26:26;8.20;99.90
14317;DHT22;7242;50.858;6.586;2023-12-20T15:29:29;8.40;99.90
14317;DHT22;7242;50.858;6.586;2023-12-20T15:32:31;8.30;99.90
14317;DHT22;7242;50.858;6.586;2023-12-20T15:35:33;8.30;99.90
14317;DHT22;7242;50.858;6.586;2023-12-20T15:38:34;8.30;99.90
14317;DHT22;7242;50.858;6.586;2023-12-20T15:41:35;8.40;99.90
14317;DHT22;7242;50.858;6.586;2023-12-20T15:47:37;8.20;99.90
14317;DHT22;7242;50.858;6.586;2023-12-20T15:53:40;8.10;99.90
14317;DHT22;7242;50.858;6.586;2023-12-20T15:59:45;8.10;99.90
14317;DHT22;7242;50.858;6.586;2023-12-20T16:02:46;8.20;99.90
14317;DHT22;7242;50.858;6.586;2023-12-20T16:08:48;8.10;99.90
14317;DHT22;7242;50.858;6.586;2023-12-20T16:17:52;8.30;99.90
14317;DHT22;7242;50.858;6.586;2023-12-20T16:20:53;8.20;99.90
14317;DHT22;7242;50.858;6.586;2023-12-20T16:29:56;8.00;99.90
14317;DHT22;7242;50.858;6.586;2023-12-20T16:35:59;8.20;99.90
14317;DHT22;7242;50.858;6.586;2023-12-20T16:51:07;8.50;99.90
14317;DHT22;7242;50.858;6.586;2023-12-20T16:57:09;8.50;99.90
14317;DHT22;7242;50.858;6.586;2023-12-20T17:00:11;8.30;99.90
14317;DHT22;7242;50.858;6.586;2023-12-20T17:09:14;9.60;99.90
14317;DHT22;7242;50.858;6.586;2023-12-20T17:15:18;8.50;99.90
14317;DHT22;7242;50.858;6.586;2023-12-20T17:18:19;8.30;99.90
14317;DHT22;7242;50.858;6.586;2023-12-20T17:21:20;8.50;99.90
14317;DHT22;7242;50.858;6.586;2023-12-20T17:30:24;8.60;99.90
14317;DHT22;7242;50.858;6.586;2023-12-20T17:39:27;8.60;99.90
14317;DHT22;7242;50.858;6.586;2023-12-20T17:42:28;8.60;99.90
14317;DHT22;7242;50.858;6.586;2023-12-20T17:45:29;8.80;99.90
14317;DHT22;7242;50.858;6.586;2023-12-20T17:48:30;8.90;99.90
14317;DHT22;7242;50.858;6.586;2023-12-20T18:00:36;9.00;99.90
14317;DHT22;7242;50.858;6.586;2023-12-20T18:15:44;8.80;99.90
14317;DHT22;7242;50.858;6.586;2023-12-20T18:31:18;8.90;99.90
14317;DHT22;7242;50.858;6.586;2023-12-20T18:34:19;9.00;99.90
14317;DHT22;7242;50.858;6.586;2023-12-20T18:46:29;9.00;99.90
14317;DHT22;7242;50.858;6.586;2023-12-20T18:58:39;8.90;99.90
14317;DHT22;7242;50.858;6.586;2023-12-20T19:10:44;9.10;99.90
14317;DHT22;7242;50.858;6.586;2023-12-20T19:19:47;9.30;99.90
14317;DHT22;7242;50.858;6.586;2023-12-20T19:31:52;8.90;99.90
14317;DHT22;7242;50.858;6.586;2023-12-20T19:34:53;9.00;99.90
14317;DHT22;7242;50.858;6.586;2023-12-20T19:50:00;9.00;99.90
14317;DHT22;7242;50.858;6.586;2023-12-20T19:56:03;8.90;99.90
14317;DHT22;7242;50.858;6.586;2023-12-20T20:17:14;9.30;99.90
14317;DHT22;7242;50.858;6.586;2023-12-20T20:23:16;9.20;99.90
14317;DHT22;7242;50.858;6.586;2023-12-20T20:29:19;9.20;99.90
14317;DHT22;7242;50.858;6.586;2023-12-20T20:35:21;9.10;99.90
14317;DHT22;7242;50.858;6.586;2023-12-20T20:41:23;9.20;99.90
14317;DHT22;7242;50.858;6.586;2023-12-20T20:53:28;9.30;99.90
14317;DHT22;7242;50.858;6.586;2023-12-20T20:59:30;9.00;99.90
14317;DHT22;7242;50.858;6.586;2023-12-20T21:05:33;9.00;99.90
14317;DHT22;7242;50.858;6.586;2023-12-20T21:08:34;9.10;99.90
14317;DHT22;7242;50.858;6.586;2023-12-20T21:17:37;9.30;99.90
14317;DHT22;7242;50.858;6.586;2023-12-20T21:29:50;9.50;99.90
14317;DHT22;7242;50.858;6.586;2023-12-20T21:44:57;9.20;99.90
14317;DHT22;7242;50.858;6.586;2023-12-20T22:09:11;9.50;99.90
14317;DHT22;7242;50.858;6.586;2023-12-20T22:15:13;9.30;99.90
14317;DHT22;7242;50.858;6.586;2023-12-20T22:45:25;9.10;99.90
14317;DHT22;7242;50.858;6.586;2023-12-20T22:51:28;9.10;99.90
14317;DHT22;7242;50.858;6.586;2023-12-20T22:57:32;9.00;99.90
14317;DHT22;7242;50.858;6.586;2023-12-20T23:12:40;9.10;99.90
14317;DHT22;7242;50.858;6.586;2023-12-20T23:18:42;9.50;99.90
14317;DHT22;7242;50.858;6.586;2023-12-20T23:24:45;9.20;99.90
14317;DHT22;7242;50.858;6.586;2023-12-20T23:27:47;8.90;99.90
14317;DHT22;7242;50.858;6.586;2023-12-20T23:30:50;9.10;99.90
14317;DHT22;7242;50.858;6.586;2023-12-20T23:33:51;9.10;99.90
14317;DHT22;7242;50.858;6.586;2023-12-20T23:36:52;9.10;99.90
14317;DHT22;7242;50.858;6.586;2023-12-20T23:39:53;9.20;99.90
14317;DHT22;7242;50.858;6.586;2023-12-20T23:45:55;9.00;99.90
14317;DHT22;7242;50.858;6.586;2023-12-20T23:51:57;9.10;99.90
